sensor_id;sensor_type;location;lat;lon;timestamp;P1;durP1;ratioP1;P2;durP2;ratioP2
26102;SDS011;32703;49.182;9.042;2022-10-16T00:00:34;1.48;;;0.70;;
26102;SDS011;32703;49.182;9.042;2022-10-16T00:03:01;1.90;;;1.30;;
26102;SDS011;32703;49.182;9.042;2022-10-16T00:05:30;1.05;;;0.82;;
26102;SDS011;32703;49.182;9.042;2022-10-16T00:07:56;4.57;;;2.20;;
26102;SDS011;32703;49.182;9.042;2022-10-16T00:10:21;5.18;;;2.25;;
26102;SDS011;32703;49.182;9.042;2022-10-16T00:12:49;4.28;;;2.50;;
26102;SDS011;32703;49.182;9.042;2022-10-16T00:15:15;3.55;;;1.83;;
26102;SDS011;32703;49.182;9.042;2022-10-16T00:17:41;3.88;;;1.73;;
26102;SDS011;32703;49.182;9.042;2022-10-16T00:20:07;3.72;;;1.50;;
26102;SDS011;32703;49.182;9.042;2022-10-16T00:22:33;2.80;;;1.10;;
26102;SDS011;32703;49.182;9.042;2022-10-16T00:24:58;1.38;;;1.05;;
26102;SDS011;32703;49.182;9.042;2022-10-16T00:27:24;2.03;;;1.10;;
26102;SDS011;32703;49.182;9.042;2022-10-16T00:29:50;1.67;;;1.10;;
26102;SDS011;32703;49.182;9.042;2022-10-16T00:32:16;2.67;;;1.20;;
26102;SDS011;32703;49.182;9.042;2022-10-16T00:34:45;1.67;;;1.27;;
26102;SDS011;32703;49.182;9.042;2022-10-16T00:37:12;4.20;;;1.10;;
26102;SDS011;32703;49.182;9.042;2022-10-16T00:39:38;2.20;;;1.00;;
26102;SDS011;32703;49.182;9.042;2022-10-16T00:42:04;1.92;;;0.98;;
26102;SDS011;32703;49.182;9.042;2022-10-16T00:52:32;2.92;;;1.50;;
26102;SDS011;32703;49.182;9.042;2022-10-16T00:54:58;1.98;;;1.20;;
26102;SDS011;32703;49.182;9.042;2022-10-16T00:57:27;2.60;;;1.27;;
26102;SDS011;32703;49.182;9.042;2022-10-16T00:59:53;1.85;;;1.05;;
26102;SDS011;32703;49.182;9.042;2022-10-16T01:02:19;1.23;;;0.70;;
26102;SDS011;32703;49.182;9.042;2022-10-16T01:04:52;0.70;;;0.65;;
26102;SDS011;32703;49.182;9.042;2022-10-16T01:10:17;0.70;;;0.50;;
26102;SDS011;32703;49.182;9.042;2022-10-16T01:13:06;2.35;;;0.70;;
26102;SDS011;32703;49.182;9.042;2022-10-16T01:15:39;1.08;;;0.60;;
26102;SDS011;32703;49.182;9.042;2022-10-16T01:18:14;1.00;;;0.57;;
26102;SDS011;32703;49.182;9.042;2022-10-16T01:21:31;1.73;;;0.52;;
26102;SDS011;32703;49.182;9.042;2022-10-16T01:27:06;0.73;;;0.60;;
26102;SDS011;32703;49.182;9.042;2022-10-16T01:29:45;0.88;;;0.70;;
26102;SDS011;32703;49.182;9.042;2022-10-16T01:35:09;0.50;;;0.50;;
26102;SDS011;32703;49.182;9.042;2022-10-16T01:40:41;2.00;;;1.15;;
26102;SDS011;32703;49.182;9.042;2022-10-16T01:43:13;2.70;;;1.08;;
26102;SDS011;32703;49.182;9.042;2022-10-16T01:45:42;1.38;;;0.80;;
26102;SDS011;32703;49.182;9.042;2022-10-16T01:48:12;1.10;;;0.70;;
26102;SDS011;32703;49.182;9.042;2022-10-16T01:50:41;0.50;;;0.47;;
26102;SDS011;32703;49.182;9.042;2022-10-16T01:53:09;0.95;;;0.50;;
26102;SDS011;32703;49.182;9.042;2022-10-16T01:55:38;0.57;;;0.45;;
26102;SDS011;32703;49.182;9.042;2022-10-16T01:58:10;0.50;;;0.45;;
26102;SDS011;32703;49.182;9.042;2022-10-16T02:00:38;0.68;;;0.50;;
26102;SDS011;32703;49.182;9.042;2022-10-16T02:03:07;0.40;;;0.40;;
26102;SDS011;32703;49.182;9.042;2022-10-16T02:05:40;0.30;;;0.30;;
26102;SDS011;32703;49.182;9.042;2022-10-16T02:08:19;0.80;;;0.52;;
26102;SDS011;32703;49.182;9.042;2022-10-16T02:10:47;0.32;;;0.32;;
26102;SDS011;32703;49.182;9.042;2022-10-16T02:13:13;0.60;;;0.40;;
26102;SDS011;32703;49.182;9.042;2022-10-16T02:15:44;1.05;;;0.60;;
26102;SDS011;32703;49.182;9.042;2022-10-16T02:18:10;0.57;;;0.57;;
26102;SDS011;32703;49.182;9.042;2022-10-16T02:20:39;0.77;;;0.57;;
26102;SDS011;32703;49.182;9.042;2022-10-16T02:23:17;0.60;;;0.50;;
26102;SDS011;32703;49.182;9.042;2022-10-16T02:26:03;0.80;;;0.60;;
26102;SDS011;32703;49.182;9.042;2022-10-16T02:28:40;0.63;;;0.35;;
26102;SDS011;32703;49.182;9.042;2022-10-16T02:31:11;0.98;;;0.52;;
26102;SDS011;32703;49.182;9.042;2022-10-16T02:33:38;0.93;;;0.50;;
26102;SDS011;32703;49.182;9.042;2022-10-16T02:36:05;0.40;;;0.40;;
26102;SDS011;32703;49.182;9.042;2022-10-16T02:38:32;0.93;;;0.65;;
26102;SDS011;32703;49.182;9.042;2022-10-16T02:40:58;1.00;;;0.68;;
26102;SDS011;32703;49.182;9.042;2022-10-16T02:43:24;1.05;;;0.50;;
26102;SDS011;32703;49.182;9.042;2022-10-16T02:45:50;0.60;;;0.45;;
26102;SDS011;32703;49.182;9.042;2022-10-16T02:48:16;1.13;;;0.40;;
26102;SDS011;32703;49.182;9.042;2022-10-16T02:50:41;2.28;;;0.65;;
26102;SDS011;32703;49.182;9.042;2022-10-16T02:53:07;0.60;;;0.57;;
26102;SDS011;32703;49.182;9.042;2022-10-16T02:55:32;0.45;;;0.40;;
26102;SDS011;32703;49.182;9.042;2022-10-16T02:57:58;0.68;;;0.40;;
26102;SDS011;32703;49.182;9.042;2022-10-16T03:00:24;0.60;;;0.60;;
26102;SDS011;32703;49.182;9.042;2022-10-16T03:02:49;0.90;;;0.52;;
26102;SDS011;32703;49.182;9.042;2022-10-16T03:05:15;0.80;;;0.60;;
26102;SDS011;32703;49.182;9.042;2022-10-16T03:07:41;0.52;;;0.50;;
26102;SDS011;32703;49.182;9.042;2022-10-16T03:10:07;0.50;;;0.50;;
26102;SDS011;32703;49.182;9.042;2022-10-16T03:12:32;0.75;;;0.57;;
26102;SDS011;32703;49.182;9.042;2022-10-16T03:14:58;0.88;;;0.60;;
26102;SDS011;32703;49.182;9.042;2022-10-16T03:17:24;1.30;;;0.50;;
26102;SDS011;32703;49.182;9.042;2022-10-16T03:19:50;0.50;;;0.40;;
26102;SDS011;32703;49.182;9.042;2022-10-16T03:22:16;0.57;;;0.40;;
26102;SDS011;32703;49.182;9.042;2022-10-16T03:24:41;0.55;;;0.40;;
26102;SDS011;32703;49.182;9.042;2022-10-16T03:27:07;1.35;;;0.50;;
26102;SDS011;32703;49.182;9.042;2022-10-16T03:29:32;0.55;;;0.50;;
26102;SDS011;32703;49.182;9.042;2022-10-16T03:31:58;0.68;;;0.52;;
26102;SDS011;32703;49.182;9.042;2022-10-16T03:34:25;0.60;;;0.50;;
26102;SDS011;32703;49.182;9.042;2022-10-16T03:36:50;0.80;;;0.60;;
26102;SDS011;32703;49.182;9.042;2022-10-16T03:39:17;1.75;;;0.63;;
26102;SDS011;32703;49.182;9.042;2022-10-16T03:41:43;0.85;;;0.50;;
26102;SDS011;32703;49.182;9.042;2022-10-16T03:44:08;0.73;;;0.60;;
26102;SDS011;32703;49.182;9.042;2022-10-16T03:46:34;2.22;;;1.35;;
26102;SDS011;32703;49.182;9.042;2022-10-16T03:48:59;0.50;;;0.40;;
26102;SDS011;32703;49.182;9.042;2022-10-16T03:51:25;0.40;;;0.40;;
26102;SDS011;32703;49.182;9.042;2022-10-16T03:53:50;0.63;;;0.50;;
26102;SDS011;32703;49.182;9.042;2022-10-16T03:56:19;0.50;;;0.40;;
26102;SDS011;32703;49.182;9.042;2022-10-16T03:58:45;0.43;;;0.43;;
26102;SDS011;32703;49.182;9.042;2022-10-16T04:01:10;0.47;;;0.40;;
26102;SDS011;32703;49.182;9.042;2022-10-16T04:03:36;0.85;;;0.45;;
26102;SDS011;32703;49.182;9.042;2022-10-16T04:06:01;1.23;;;0.70;;
26102;SDS011;32703;49.182;9.042;2022-10-16T04:08:27;0.57;;;0.40;;
26102;SDS011;32703;49.182;9.042;2022-10-16T04:10:52;0.80;;;0.50;;
26102;SDS011;32703;49.182;9.042;2022-10-16T04:13:18;0.88;;;0.70;;
26102;SDS011;32703;49.182;9.042;2022-10-16T04:15:44;0.70;;;0.40;;
26102;SDS011;32703;49.182;9.042;2022-10-16T04:18:10;0.32;;;0.32;;
26102;SDS011;32703;49.182;9.042;2022-10-16T04:20:36;0.50;;;0.47;;
26102;SDS011;32703;49.182;9.042;2022-10-16T04:23:01;2.03;;;0.50;;
26102;SDS011;32703;49.182;9.042;2022-10-16T04:25:27;0.60;;;0.40;;
26102;SDS011;32703;49.182;9.042;2022-10-16T04:27:53;0.43;;;0.43;;
26102;SDS011;32703;49.182;9.042;2022-10-16T04:30:19;0.77;;;0.50;;
26102;SDS011;32703;49.182;9.042;2022-10-16T04:32:49;0.93;;;0.68;;
26102;SDS011;32703;49.182;9.042;2022-10-16T04:35:16;0.50;;;0.50;;
26102;SDS011;32703;49.182;9.042;2022-10-16T04:37:42;0.70;;;0.60;;
26102;SDS011;32703;49.182;9.042;2022-10-16T04:40:08;0.50;;;0.50;;
26102;SDS011;32703;49.182;9.042;2022-10-16T04:42:33;0.77;;;0.60;;
26102;SDS011;32703;49.182;9.042;2022-10-16T04:44:59;1.02;;;0.77;;
26102;SDS011;32703;49.182;9.042;2022-10-16T04:47:24;1.00;;;0.65;;
26102;SDS011;32703;49.182;9.042;2022-10-16T04:49:50;0.65;;;0.60;;
26102;SDS011;32703;49.182;9.042;2022-10-16T04:52:15;1.05;;;0.60;;
26102;SDS011;32703;49.182;9.042;2022-10-16T04:54:42;0.50;;;0.45;;
26102;SDS011;32703;49.182;9.042;2022-10-16T04:57:09;0.50;;;0.50;;
26102;SDS011;32703;49.182;9.042;2022-10-16T04:59:35;0.80;;;0.50;;
26102;SDS011;32703;49.182;9.042;2022-10-16T05:02:01;1.63;;;0.85;;
26102;SDS011;32703;49.182;9.042;2022-10-16T05:04:27;1.35;;;0.60;;
26102;SDS011;32703;49.182;9.042;2022-10-16T05:06:52;0.60;;;0.50;;
26102;SDS011;32703;49.182;9.042;2022-10-16T05:09:18;3.60;;;0.60;;
26102;SDS011;32703;49.182;9.042;2022-10-16T05:11:43;0.75;;;0.40;;
26102;SDS011;32703;49.182;9.042;2022-10-16T05:14:09;0.73;;;0.50;;
26102;SDS011;32703;49.182;9.042;2022-10-16T05:16:34;0.50;;;0.50;;
26102;SDS011;32703;49.182;9.042;2022-10-16T05:19:00;0.80;;;0.70;;
26102;SDS011;32703;49.182;9.042;2022-10-16T05:21:26;0.63;;;0.50;;
26102;SDS011;32703;49.182;9.042;2022-10-16T05:23:53;1.30;;;0.40;;
26102;SDS011;32703;49.182;9.042;2022-10-16T05:26:20;0.63;;;0.60;;
26102;SDS011;32703;49.182;9.042;2022-10-16T05:28:46;0.60;;;0.50;;
26102;SDS011;32703;49.182;9.042;2022-10-16T05:31:11;1.23;;;0.63;;
26102;SDS011;32703;49.182;9.042;2022-10-16T05:33:37;0.80;;;0.60;;
26102;SDS011;32703;49.182;9.042;2022-10-16T05:36:06;0.57;;;0.50;;
26102;SDS011;32703;49.182;9.042;2022-10-16T05:38:33;2.08;;;0.65;;
26102;SDS011;32703;49.182;9.042;2022-10-16T05:40:59;0.80;;;0.70;;
26102;SDS011;32703;49.182;9.042;2022-10-16T05:43:26;1.27;;;0.75;;
26102;SDS011;32703;49.182;9.042;2022-10-16T05:45:56;1.00;;;0.80;;
26102;SDS011;32703;49.182;9.042;2022-10-16T05:48:23;1.52;;;0.90;;
26102;SDS011;32703;49.182;9.042;2022-10-16T05:50:56;1.35;;;0.95;;
26102;SDS011;32703;49.182;9.042;2022-10-16T05:53:30;0.77;;;0.73;;
26102;SDS011;32703;49.182;9.042;2022-10-16T05:55:57;1.08;;;0.77;;
26102;SDS011;32703;49.182;9.042;2022-10-16T05:58:23;2.70;;;0.70;;
26102;SDS011;32703;49.182;9.042;2022-10-16T06:00:58;1.48;;;0.88;;
26102;SDS011;32703;49.182;9.042;2022-10-16T06:03:28;0.93;;;0.70;;
26102;SDS011;32703;49.182;9.042;2022-10-16T06:05:53;0.98;;;0.70;;
26102;SDS011;32703;49.182;9.042;2022-10-16T06:08:20;2.25;;;0.80;;
26102;SDS011;32703;49.182;9.042;2022-10-16T06:10:47;0.85;;;0.73;;
26102;SDS011;32703;49.182;9.042;2022-10-16T06:13:13;0.95;;;0.73;;
26102;SDS011;32703;49.182;9.042;2022-10-16T06:15:39;1.20;;;0.60;;
26102;SDS011;32703;49.182;9.042;2022-10-16T06:18:09;0.88;;;0.75;;
26102;SDS011;32703;49.182;9.042;2022-10-16T06:20:35;8.10;;;0.82;;
26102;SDS011;32703;49.182;9.042;2022-10-16T06:23:01;0.70;;;0.70;;
26102;SDS011;32703;49.182;9.042;2022-10-16T06:25:28;1.20;;;0.77;;
26102;SDS011;32703;49.182;9.042;2022-10-16T06:27:55;0.60;;;0.60;;
26102;SDS011;32703;49.182;9.042;2022-10-16T06:30:20;0.70;;;0.70;;
26102;SDS011;32703;49.182;9.042;2022-10-16T06:32:46;1.63;;;0.90;;
26102;SDS011;32703;49.182;9.042;2022-10-16T06:35:11;5.25;;;1.20;;
26102;SDS011;32703;49.182;9.042;2022-10-16T06:37:37;0.75;;;0.70;;
26102;SDS011;32703;49.182;9.042;2022-10-16T06:40:03;2.15;;;1.10;;
26102;SDS011;32703;49.182;9.042;2022-10-16T06:42:29;1.15;;;0.93;;
26102;SDS011;32703;49.182;9.042;2022-10-16T06:44:55;1.35;;;1.00;;
26102;SDS011;32703;49.182;9.042;2022-10-16T06:47:20;1.10;;;0.82;;
26102;SDS011;32703;49.182;9.042;2022-10-16T06:49:46;1.25;;;0.85;;
26102;SDS011;32703;49.182;9.042;2022-10-16T06:52:12;1.75;;;0.95;;
26102;SDS011;32703;49.182;9.042;2022-10-16T06:54:37;1.98;;;0.90;;
26102;SDS011;32703;49.182;9.042;2022-10-16T06:57:03;0.98;;;0.80;;
26102;SDS011;32703;49.182;9.042;2022-10-16T06:59:28;1.67;;;0.95;;
26102;SDS011;32703;49.182;9.042;2022-10-16T07:01:54;1.35;;;1.08;;
26102;SDS011;32703;49.182;9.042;2022-10-16T07:04:19;4.13;;;1.40;;
26102;SDS011;32703;49.182;9.042;2022-10-16T07:06:45;1.55;;;1.00;;
26102;SDS011;32703;49.182;9.042;2022-10-16T07:09:10;1.10;;;0.80;;
26102;SDS011;32703;49.182;9.042;2022-10-16T07:11:37;1.75;;;0.90;;
26102;SDS011;32703;49.182;9.042;2022-10-16T07:14:04;1.67;;;1.00;;
26102;SDS011;32703;49.182;9.042;2022-10-16T07:16:30;1.67;;;0.98;;
26102;SDS011;32703;49.182;9.042;2022-10-16T07:18:58;1.38;;;1.00;;
26102;SDS011;32703;49.182;9.042;2022-10-16T07:21:29;2.45;;;1.30;;
26102;SDS011;32703;49.182;9.042;2022-10-16T07:24:00;2.78;;;0.98;;
26102;SDS011;32703;49.182;9.042;2022-10-16T07:26:27;2.58;;;1.60;;
26102;SDS011;32703;49.182;9.042;2022-10-16T07:28:55;2.47;;;1.55;;
26102;SDS011;32703;49.182;9.042;2022-10-16T07:31:22;2.95;;;1.00;;
26102;SDS011;32703;49.182;9.042;2022-10-16T07:33:48;2.22;;;1.27;;
26102;SDS011;32703;49.182;9.042;2022-10-16T07:36:15;3.05;;;1.42;;
26102;SDS011;32703;49.182;9.042;2022-10-16T07:38:41;4.47;;;1.20;;
26102;SDS011;32703;49.182;9.042;2022-10-16T07:41:07;1.77;;;1.17;;
26102;SDS011;32703;49.182;9.042;2022-10-16T07:43:35;2.33;;;1.10;;
26102;SDS011;32703;49.182;9.042;2022-10-16T07:46:01;2.17;;;1.20;;
26102;SDS011;32703;49.182;9.042;2022-10-16T07:48:27;2.13;;;1.20;;
26102;SDS011;32703;49.182;9.042;2022-10-16T07:51:01;1.48;;;0.85;;
26102;SDS011;32703;49.182;9.042;2022-10-16T07:53:28;2.25;;;1.02;;
26102;SDS011;32703;49.182;9.042;2022-10-16T07:56:00;1.58;;;0.93;;
26102;SDS011;32703;49.182;9.042;2022-10-16T07:58:28;4.20;;;0.90;;
26102;SDS011;32703;49.182;9.042;2022-10-16T08:00:54;1.40;;;1.02;;
26102;SDS011;32703;49.182;9.042;2022-10-16T08:03:20;1.30;;;0.73;;
26102;SDS011;32703;49.182;9.042;2022-10-16T08:05:46;1.88;;;0.93;;
26102;SDS011;32703;49.182;9.042;2022-10-16T08:08:15;1.35;;;1.00;;
26102;SDS011;32703;49.182;9.042;2022-10-16T08:10:42;0.82;;;0.60;;
26102;SDS011;32703;49.182;9.042;2022-10-16T08:13:07;0.80;;;0.70;;
26102;SDS011;32703;49.182;9.042;2022-10-16T08:15:33;0.80;;;0.80;;
26102;SDS011;32703;49.182;9.042;2022-10-16T08:18:02;0.68;;;0.50;;
26102;SDS011;32703;49.182;9.042;2022-10-16T08:20:29;0.90;;;0.70;;
26102;SDS011;32703;49.182;9.042;2022-10-16T08:22:56;1.73;;;0.75;;
26102;SDS011;32703;49.182;9.042;2022-10-16T08:25:22;1.70;;;1.02;;
26102;SDS011;32703;49.182;9.042;2022-10-16T08:27:48;1.35;;;0.90;;
26102;SDS011;32703;49.182;9.042;2022-10-16T08:30:14;1.17;;;0.73;;
26102;SDS011;32703;49.182;9.042;2022-10-16T08:32:41;2.28;;;0.95;;
26102;SDS011;32703;49.182;9.042;2022-10-16T08:35:07;3.03;;;0.93;;
26102;SDS011;32703;49.182;9.042;2022-10-16T08:37:34;1.30;;;0.88;;
26102;SDS011;32703;49.182;9.042;2022-10-16T08:40:11;1.08;;;0.70;;
26102;SDS011;32703;49.182;9.042;2022-10-16T08:51:00;1.95;;;1.08;;
26102;SDS011;32703;49.182;9.042;2022-10-16T08:53:33;2.22;;;0.90;;
26102;SDS011;32703;49.182;9.042;2022-10-16T08:56:07;1.38;;;0.82;;
26102;SDS011;32703;49.182;9.042;2022-10-16T08:58:33;1.17;;;0.77;;
26102;SDS011;32703;49.182;9.042;2022-10-16T09:01:00;0.82;;;0.63;;
26102;SDS011;32703;49.182;9.042;2022-10-16T09:12:12;1.75;;;0.88;;
26102;SDS011;32703;49.182;9.042;2022-10-16T09:17:53;0.77;;;0.70;;
26102;SDS011;32703;49.182;9.042;2022-10-16T09:23:08;1.33;;;1.08;;
26102;SDS011;32703;49.182;9.042;2022-10-16T09:25:39;1.42;;;0.90;;
26102;SDS011;32703;49.182;9.042;2022-10-16T09:28:07;1.75;;;0.70;;
26102;SDS011;32703;49.182;9.042;2022-10-16T09:30:33;0.70;;;0.68;;
26102;SDS011;32703;49.182;9.042;2022-10-16T09:32:58;1.02;;;0.80;;
26102;SDS011;32703;49.182;9.042;2022-10-16T09:35:27;1.30;;;0.70;;
26102;SDS011;32703;49.182;9.042;2022-10-16T09:37:58;1.05;;;0.80;;
26102;SDS011;32703;49.182;9.042;2022-10-16T09:40:28;1.38;;;0.80;;
26102;SDS011;32703;49.182;9.042;2022-10-16T09:43:01;1.02;;;0.60;;
26102;SDS011;32703;49.182;9.042;2022-10-16T09:45:43;1.95;;;0.60;;
26102;SDS011;32703;49.182;9.042;2022-10-16T09:48:17;2.25;;;0.68;;
26102;SDS011;32703;49.182;9.042;2022-10-16T09:50:54;0.82;;;0.50;;
26102;SDS011;32703;49.182;9.042;2022-10-16T09:53:24;0.70;;;0.60;;
26102;SDS011;32703;49.182;9.042;2022-10-16T09:56:05;0.75;;;0.50;;
26102;SDS011;32703;49.182;9.042;2022-10-16T09:58:31;1.15;;;0.80;;
26102;SDS011;32703;49.182;9.042;2022-10-16T10:00:58;1.45;;;0.70;;
26102;SDS011;32703;49.182;9.042;2022-10-16T10:03:32;3.03;;;0.63;;
26102;SDS011;32703;49.182;9.042;2022-10-16T10:06:06;3.03;;;0.60;;
26102;SDS011;32703;49.182;9.042;2022-10-16T10:11:39;1.00;;;0.77;;
26102;SDS011;32703;49.182;9.042;2022-10-16T10:16:50;0.93;;;0.70;;
26102;SDS011;32703;49.182;9.042;2022-10-16T10:19:21;0.93;;;0.60;;
26102;SDS011;32703;49.182;9.042;2022-10-16T10:21:49;3.88;;;0.80;;
26102;SDS011;32703;49.182;9.042;2022-10-16T10:24:17;0.70;;;0.60;;
26102;SDS011;32703;49.182;9.042;2022-10-16T10:26:49;0.88;;;0.70;;
26102;SDS011;32703;49.182;9.042;2022-10-16T10:31:57;1.52;;;0.80;;
26102;SDS011;32703;49.182;9.042;2022-10-16T10:34:48;1.23;;;0.93;;
26102;SDS011;32703;49.182;9.042;2022-10-16T10:46:05;0.50;;;0.50;;
26102;SDS011;32703;49.182;9.042;2022-10-16T10:51:31;0.70;;;0.70;;
26102;SDS011;32703;49.182;9.042;2022-10-16T10:56:43;1.25;;;0.90;;
26102;SDS011;32703;49.182;9.042;2022-10-16T10:59:32;2.03;;;0.55;;
26102;SDS011;32703;49.182;9.042;2022-10-16T11:07:58;0.68;;;0.68;;
26102;SDS011;32703;49.182;9.042;2022-10-16T11:10:34;2.88;;;0.70;;
26102;SDS011;32703;49.182;9.042;2022-10-16T11:13:20;0.60;;;0.60;;
26102;SDS011;32703;49.182;9.042;2022-10-16T11:15:47;0.50;;;0.50;;
26102;SDS011;32703;49.182;9.042;2022-10-16T11:20:49;0.73;;;0.70;;
26102;SDS011;32703;49.182;9.042;2022-10-16T11:23:23;1.55;;;0.68;;
26102;SDS011;32703;49.182;9.042;2022-10-16T11:25:56;1.50;;;0.80;;
26102;SDS011;32703;49.182;9.042;2022-10-16T11:28:45;1.25;;;0.80;;
26102;SDS011;32703;49.182;9.042;2022-10-16T11:37:06;0.93;;;0.77;;
26102;SDS011;32703;49.182;9.042;2022-10-16T11:39:52;0.63;;;0.63;;
26102;SDS011;32703;49.182;9.042;2022-10-16T11:42:30;0.80;;;0.60;;
26102;SDS011;32703;49.182;9.042;2022-10-16T11:45:22;0.73;;;0.60;;
26102;SDS011;32703;49.182;9.042;2022-10-16T11:47:58;0.98;;;0.60;;
26102;SDS011;32703;49.182;9.042;2022-10-16T11:50:38;4.75;;;0.60;;
26102;SDS011;32703;49.182;9.042;2022-10-16T11:56:03;0.90;;;0.60;;
26102;SDS011;32703;49.182;9.042;2022-10-16T11:58:31;2.38;;;0.77;;
26102;SDS011;32703;49.182;9.042;2022-10-16T12:03:58;0.80;;;0.50;;
26102;SDS011;32703;49.182;9.042;2022-10-16T12:07:21;0.55;;;0.55;;
26102;SDS011;32703;49.182;9.042;2022-10-16T12:09:31;0.70;;;0.70;;
26102;SDS011;32703;49.182;9.042;2022-10-16T12:12:00;0.90;;;0.73;;
26102;SDS011;32703;49.182;9.042;2022-10-16T12:16:57;0.75;;;0.50;;
26102;SDS011;32703;49.182;9.042;2022-10-16T12:19:42;0.47;;;0.45;;
26102;SDS011;32703;49.182;9.042;2022-10-16T12:22:15;0.77;;;0.73;;
26102;SDS011;32703;49.182;9.042;2022-10-16T12:24:43;0.80;;;0.75;;
26102;SDS011;32703;49.182;9.042;2022-10-16T12:27:28;1.58;;;0.60;;
26102;SDS011;32703;49.182;9.042;2022-10-16T12:30:00;0.75;;;0.60;;
26102;SDS011;32703;49.182;9.042;2022-10-16T12:32:37;1.00;;;0.65;;
26102;SDS011;32703;49.182;9.042;2022-10-16T12:35:04;1.08;;;0.70;;
26102;SDS011;32703;49.182;9.042;2022-10-16T12:37:41;1.20;;;0.60;;
26102;SDS011;32703;49.182;9.042;2022-10-16T12:43:52;0.57;;;0.50;;
26102;SDS011;32703;49.182;9.042;2022-10-16T12:48:39;1.60;;;0.88;;
26102;SDS011;32703;49.182;9.042;2022-10-16T12:54:15;0.60;;;0.60;;
26102;SDS011;32703;49.182;9.042;2022-10-16T12:59:54;0.80;;;0.55;;
26102;SDS011;32703;49.182;9.042;2022-10-16T13:26:03;0.60;;;0.60;;
26102;SDS011;32703;49.182;9.042;2022-10-16T13:28:35;1.75;;;0.80;;
26102;SDS011;32703;49.182;9.042;2022-10-16T13:31:10;3.80;;;0.75;;
26102;SDS011;32703;49.182;9.042;2022-10-16T13:33:50;0.60;;;0.50;;
26102;SDS011;32703;49.182;9.042;2022-10-16T13:36:22;1.05;;;0.70;;
26102;SDS011;32703;49.182;9.042;2022-10-16T13:39:00;1.63;;;0.80;;
26102;SDS011;32703;49.182;9.042;2022-10-16T13:41:37;1.30;;;0.90;;
26102;SDS011;32703;49.182;9.042;2022-10-16T13:44:03;0.50;;;0.50;;
26102;SDS011;32703;49.182;9.042;2022-10-16T13:46:30;0.82;;;0.70;;
26102;SDS011;32703;49.182;9.042;2022-10-16T13:49:05;0.60;;;0.60;;
26102;SDS011;32703;49.182;9.042;2022-10-16T13:51:39;2.30;;;0.80;;
26102;SDS011;32703;49.182;9.042;2022-10-16T13:54:04;0.50;;;0.50;;
26102;SDS011;32703;49.182;9.042;2022-10-16T13:56:31;1.20;;;0.90;;
26102;SDS011;32703;49.182;9.042;2022-10-16T14:01:28;0.73;;;0.50;;
26102;SDS011;32703;49.182;9.042;2022-10-16T14:04:02;0.70;;;0.70;;
26102;SDS011;32703;49.182;9.042;2022-10-16T14:06:30;3.03;;;0.60;;
26102;SDS011;32703;49.182;9.042;2022-10-16T14:09:07;1.95;;;0.75;;
26102;SDS011;32703;49.182;9.042;2022-10-16T14:11:44;1.38;;;1.00;;
26102;SDS011;32703;49.182;9.042;2022-10-16T14:14:14;1.02;;;0.80;;
26102;SDS011;32703;49.182;9.042;2022-10-16T14:16:40;1.00;;;0.65;;
26102;SDS011;32703;49.182;9.042;2022-10-16T14:19:24;0.75;;;0.63;;
26102;SDS011;32703;49.182;9.042;2022-10-16T14:21:52;0.88;;;0.60;;
26102;SDS011;32703;49.182;9.042;2022-10-16T14:26:57;1.08;;;0.77;;
26102;SDS011;32703;49.182;9.042;2022-10-16T14:29:23;0.57;;;0.50;;
26102;SDS011;32703;49.182;9.042;2022-10-16T14:31:54;4.30;;;0.77;;
26102;SDS011;32703;49.182;9.042;2022-10-16T14:34:34;2.38;;;0.70;;
26102;SDS011;32703;49.182;9.042;2022-10-16T14:37:09;1.23;;;0.70;;
26102;SDS011;32703;49.182;9.042;2022-10-16T14:39:50;0.60;;;0.50;;
26102;SDS011;32703;49.182;9.042;2022-10-16T14:42:17;0.95;;;0.68;;
26102;SDS011;32703;49.182;9.042;2022-10-16T14:44:44;0.60;;;0.60;;
26102;SDS011;32703;49.182;9.042;2022-10-16T14:47:17;1.05;;;0.77;;
26102;SDS011;32703;49.182;9.042;2022-10-16T14:49:49;0.82;;;0.65;;
26102;SDS011;32703;49.182;9.042;2022-10-16T14:52:16;0.82;;;0.63;;
26102;SDS011;32703;49.182;9.042;2022-10-16T14:54:42;0.70;;;0.57;;
26102;SDS011;32703;49.182;9.042;2022-10-16T14:57:18;0.85;;;0.70;;
26102;SDS011;32703;49.182;9.042;2022-10-16T14:59:45;0.57;;;0.55;;
26102;SDS011;32703;49.182;9.042;2022-10-16T15:02:16;0.82;;;0.57;;
26102;SDS011;32703;49.182;9.042;2022-10-16T15:04:47;0.98;;;0.70;;
26102;SDS011;32703;49.182;9.042;2022-10-16T15:07:13;0.75;;;0.65;;
26102;SDS011;32703;49.182;9.042;2022-10-16T15:09:39;2.90;;;0.80;;
26102;SDS011;32703;49.182;9.042;2022-10-16T15:12:04;1.20;;;0.73;;
26102;SDS011;32703;49.182;9.042;2022-10-16T15:14:30;1.08;;;0.60;;
26102;SDS011;32703;49.182;9.042;2022-10-16T15:16:56;1.58;;;0.70;;
26102;SDS011;32703;49.182;9.042;2022-10-16T15:19:22;1.00;;;0.70;;
26102;SDS011;32703;49.182;9.042;2022-10-16T15:21:47;0.70;;;0.63;;
26102;SDS011;32703;49.182;9.042;2022-10-16T15:24:14;1.00;;;0.80;;
26102;SDS011;32703;49.182;9.042;2022-10-16T15:26:40;0.75;;;0.70;;
26102;SDS011;32703;49.182;9.042;2022-10-16T15:29:06;1.33;;;0.80;;
26102;SDS011;32703;49.182;9.042;2022-10-16T15:31:32;2.35;;;1.23;;
26102;SDS011;32703;49.182;9.042;2022-10-16T15:34:00;1.05;;;0.80;;
26102;SDS011;32703;49.182;9.042;2022-10-16T15:36:34;0.80;;;0.55;;
26102;SDS011;32703;49.182;9.042;2022-10-16T15:41:46;0.82;;;0.63;;
26102;SDS011;32703;49.182;9.042;2022-10-16T15:44:21;1.17;;;0.77;;
26102;SDS011;32703;49.182;9.042;2022-10-16T15:46:54;0.90;;;0.80;;
26102;SDS011;32703;49.182;9.042;2022-10-16T15:49:20;0.98;;;0.75;;
26102;SDS011;32703;49.182;9.042;2022-10-16T15:51:45;1.40;;;1.00;;
26102;SDS011;32703;49.182;9.042;2022-10-16T15:54:11;1.00;;;0.80;;
26102;SDS011;32703;49.182;9.042;2022-10-16T15:56:37;1.00;;;0.80;;
26102;SDS011;32703;49.182;9.042;2022-10-16T15:59:08;2.08;;;1.15;;
26102;SDS011;32703;49.182;9.042;2022-10-16T16:01:35;1.60;;;1.08;;
26102;SDS011;32703;49.182;9.042;2022-10-16T16:04:01;5.47;;;1.13;;
26102;SDS011;32703;49.182;9.042;2022-10-16T16:06:27;1.65;;;1.08;;
26102;SDS011;32703;49.182;9.042;2022-10-16T16:08:53;1.48;;;1.00;;
26102;SDS011;32703;49.182;9.042;2022-10-16T16:11:19;2.10;;;1.25;;
26102;SDS011;32703;49.182;9.042;2022-10-16T16:13:45;2.45;;;0.90;;
26102;SDS011;32703;49.182;9.042;2022-10-16T16:16:12;6.85;;;1.20;;
26102;SDS011;32703;49.182;9.042;2022-10-16T16:18:50;1.05;;;0.90;;
26102;SDS011;32703;49.182;9.042;2022-10-16T16:21:18;1.63;;;0.90;;
26102;SDS011;32703;49.182;9.042;2022-10-16T16:23:52;1.77;;;1.02;;
26102;SDS011;32703;49.182;9.042;2022-10-16T16:26:28;1.10;;;0.80;;
26102;SDS011;32703;49.182;9.042;2022-10-16T16:28:59;2.50;;;1.10;;
26102;SDS011;32703;49.182;9.042;2022-10-16T16:31:25;5.13;;;1.02;;
26102;SDS011;32703;49.182;9.042;2022-10-16T16:33:52;1.92;;;1.10;;
26102;SDS011;32703;49.182;9.042;2022-10-16T16:36:18;1.88;;;1.05;;
26102;SDS011;32703;49.182;9.042;2022-10-16T16:38:44;2.67;;;0.90;;
26102;SDS011;32703;49.182;9.042;2022-10-16T16:41:14;0.70;;;0.60;;
26102;SDS011;32703;49.182;9.042;2022-10-16T16:43:41;1.45;;;0.80;;
26102;SDS011;32703;49.182;9.042;2022-10-16T16:46:07;1.23;;;0.95;;
26102;SDS011;32703;49.182;9.042;2022-10-16T16:48:36;1.98;;;1.10;;
26102;SDS011;32703;49.182;9.042;2022-10-16T16:51:06;5.75;;;3.10;;
26102;SDS011;32703;49.182;9.042;2022-10-16T16:53:43;7.68;;;3.00;;
26102;SDS011;32703;49.182;9.042;2022-10-16T16:56:14;8.73;;;3.40;;
26102;SDS011;32703;49.182;9.042;2022-10-16T16:58:46;4.47;;;2.80;;
26102;SDS011;32703;49.182;9.042;2022-10-16T17:01:23;2.58;;;1.75;;
26102;SDS011;32703;49.182;9.042;2022-10-16T17:03:52;2.53;;;1.55;;
26102;SDS011;32703;49.182;9.042;2022-10-16T17:06:20;3.30;;;1.20;;
26102;SDS011;32703;49.182;9.042;2022-10-16T17:08:48;1.45;;;1.10;;
26102;SDS011;32703;49.182;9.042;2022-10-16T17:11:17;2.60;;;1.30;;